首页
METAR-TAF:

METAR-TAF

机场 :

Figari, 法国

纬度: 41-30N, 经度: 009-06E, 海拔: 26米

当前天气观测

该预报发布于33分钟前的10:30 UTC
风速6节,风向南转西南,在南转南东西之间变化
温度 27°C
湿度 42%
气压 1024 hPa
能见度10公里或以上
1500米以下无云,无积雨云

METAR: LFKF 261030Z AUTO 21006KT 160V270 CAVOK 27/13 Q1024 NOSIG

时间: 13:03 (11:03 UTC)

预报

该预报发布于2小时和53分钟前的08:10 UTC
预报有效从26日的 09点(UTC)到 27日的 09点(UTC)
风速5节,风向多变
能见度10公里或以上
1500米以下无云,无积雨云
成为
从 26日的 15点(UTC)到 26日的 17点(UTC)
风速10节,风向东转东北
短暂存在
从 27日的 08点(UTC)到 27日的 09点(UTC)
风速15节,风向东转东北,有时为25节阵风

TAF: LFKF 260810Z 2609/2709 VRB05KT CAVOK BECMG 2615/2617 07010KT TEMPO 2708/2709 07015G25KT

超过4000个机场的气象观测和天气预报(METAR&TAF报告)。

可查询的气象台以黄色和红色小点在地图上表示。

将鼠标移到小点上方,可查看气象台名称。

然后点击查看天气观测和预报。

如需切换地图:点击带黑十字的绿色按钮放大地图;点击带横线的绿色按钮缩小地图;或者点击绿色箭头查看邻近地区的地图。


METAR-TAF: